createdAt,value
2022-08-23T00:00:18.053Z,18.50
2022-08-23T00:02:46.631Z,18.50
2022-08-23T00:05:14.737Z,18.60
2022-08-23T00:07:44.328Z,18.50
2022-08-23T00:10:17.460Z,18.50
2022-08-23T00:12:46.918Z,18.50
2022-08-23T00:15:19.328Z,18.60
2022-08-23T00:17:47.696Z,18.60
2022-08-23T00:20:17.859Z,18.60
2022-08-23T00:22:46.158Z,18.50
2022-08-23T00:25:15.333Z,18.50
2022-08-23T00:27:43.555Z,18.60
2022-08-23T00:30:17.763Z,18.50
2022-08-23T00:32:46.143Z,18.40
2022-08-23T00:35:26.967Z,18.40
2022-08-23T00:38:33.136Z,18.30
2022-08-23T00:40:46.618Z,18.20
2022-08-23T00:43:46.308Z,18.20
2022-08-23T00:46:49.449Z,18.30
2022-08-23T00:49:18.463Z,18.20
2022-08-23T00:51:53.144Z,18.00
2022-08-23T00:54:24.394Z,17.90
2022-08-23T00:56:53.644Z,17.70
2022-08-23T00:59:22.607Z,17.60
2022-08-23T01:01:53.114Z,17.50
2022-08-23T01:04:22.125Z,17.50
2022-08-23T01:06:55.577Z,17.50
2022-08-23T01:09:23.903Z,17.50
2022-08-23T01:11:57.738Z,17.50
2022-08-23T01:14:31.564Z,17.50
2022-08-23T01:17:05.759Z,17.70
2022-08-23T01:19:37.571Z,18.00
2022-08-23T01:22:12.805Z,18.10
2022-08-23T01:25:06.514Z,18.10
2022-08-23T01:27:32.238Z,18.20
2022-08-23T01:30:01.407Z,18.20
2022-08-23T01:32:29.931Z,18.30
2022-08-23T01:34:58.144Z,18.20
2022-08-23T01:37:26.388Z,18.10
2022-08-23T01:39:56.438Z,18.00
2022-08-23T01:42:24.639Z,17.60
2022-08-23T01:44:52.736Z,17.40
2022-08-23T01:47:20.777Z,17.20
2022-08-23T01:49:48.928Z,17.00
2022-08-23T01:52:17.283Z,16.70
2022-08-23T01:54:46.816Z,16.60
2022-08-23T01:57:17.208Z,16.40
2022-08-23T01:59:45.395Z,16.20
2022-08-23T02:02:15.014Z,16.00
2022-08-23T02:04:43.127Z,15.90
2022-08-23T02:07:11.332Z,15.80
2022-08-23T02:09:39.462Z,15.80
2022-08-23T02:12:09.031Z,15.80
2022-08-23T02:14:42.037Z,15.90
2022-08-23T02:17:10.363Z,15.80
2022-08-23T02:19:39.320Z,15.90
2022-08-23T02:22:08.880Z,15.90
2022-08-23T02:24:39.939Z,15.90
2022-08-23T02:27:08.009Z,15.90
2022-08-23T02:29:39.234Z,16.00
2022-08-23T02:32:09.983Z,16.10
2022-08-23T02:34:38.579Z,16.20
2022-08-23T02:37:07.407Z,16.20
2022-08-23T02:39:35.752Z,16.20
2022-08-23T02:42:07.247Z,16.30
2022-08-23T02:44:35.880Z,16.30
2022-08-23T02:47:04.124Z,16.30
2022-08-23T02:49:33.798Z,16.20
2022-08-23T02:52:01.954Z,16.10
2022-08-23T02:54:30.426Z,16.00
2022-08-23T02:56:58.484Z,15.80
2022-08-23T02:59:26.699Z,15.60
2022-08-23T03:01:54.893Z,15.60
2022-08-23T03:04:23.998Z,15.50
2022-08-23T03:06:53.930Z,15.40
2022-08-23T03:09:22.132Z,15.40
2022-08-23T03:11:50.810Z,15.30
2022-08-23T03:14:18.880Z,15.20
2022-08-23T03:16:47.104Z,15.20
2022-08-23T03:19:15.155Z,15.10
2022-08-23T03:21:43.857Z,15.10
2022-08-23T03:24:13.851Z,15.10
2022-08-23T03:26:44.138Z,15.10
2022-08-23T03:29:13.115Z,15.10
2022-08-23T03:31:41.555Z,15.10
2022-08-23T03:34:10.778Z,15.10
2022-08-23T03:36:39.188Z,15.10
2022-08-23T03:39:08.102Z,15.10
2022-08-23T03:41:37.568Z,15.10
2022-08-23T03:44:06.058Z,15.10
2022-08-23T03:46:34.398Z,15.10
2022-08-23T03:49:03.926Z,15.10
2022-08-23T03:51:34.244Z,15.10
2022-08-23T03:54:03.028Z,15.00
2022-08-23T03:56:33.707Z,14.90
2022-08-23T03:59:05.818Z,14.90
2022-08-23T04:01:33.937Z,14.80
2022-08-23T04:04:02.018Z,14.70
2022-08-23T04:06:32.995Z,14.70
2022-08-23T04:09:01.168Z,14.70
2022-08-23T04:11:29.502Z,14.80
2022-08-23T04:13:57.577Z,14.80
2022-08-23T04:16:27.237Z,14.80
2022-08-23T04:18:55.319Z,14.70
2022-08-23T04:21:25.050Z,14.80
2022-08-23T04:23:54.320Z,14.80
2022-08-23T04:26:30.072Z,14.70
2022-08-23T04:28:58.527Z,14.70
2022-08-23T04:31:33.547Z,14.70
2022-08-23T04:34:05.138Z,14.70
2022-08-23T04:36:38.010Z,14.70
2022-08-23T04:39:06.686Z,14.80
2022-08-23T04:41:52.259Z,14.80
2022-08-23T04:44:20.358Z,14.90
2022-08-23T04:46:49.923Z,14.90
2022-08-23T04:49:18.404Z,14.90
2022-08-23T04:51:53.860Z,14.90
2022-08-23T04:54:23.265Z,15.00
2022-08-23T04:56:57.168Z,15.10
2022-08-23T04:59:28.297Z,15.30
2022-08-23T05:01:57.960Z,15.50
2022-08-23T05:04:39.588Z,15.60
2022-08-23T05:07:11.282Z,15.50
2022-08-23T05:09:39.462Z,15.50
2022-08-23T05:12:07.916Z,15.60
2022-08-23T05:14:44.730Z,15.80
2022-08-23T05:20:17.030Z,16.90
2022-08-23T05:22:45.251Z,17.80
2022-08-23T05:25:13.356Z,18.50
2022-08-23T05:27:41.511Z,19.30
2022-08-23T05:30:15.235Z,19.90
2022-08-23T05:32:45.071Z,20.30
2022-08-23T05:35:13.203Z,20.50
2022-08-23T05:37:41.598Z,20.80
2022-08-23T05:40:14.459Z,21.10
2022-08-23T05:43:15.204Z,21.40
2022-08-23T05:46:04.603Z,21.80
2022-08-23T05:48:35.342Z,22.00
2022-08-23T05:51:13.903Z,22.00
2022-08-23T05:53:56.900Z,22.20
2022-08-23T05:56:28.688Z,22.50
2022-08-23T05:59:03.809Z,22.60
2022-08-23T06:01:32.385Z,23.00
2022-08-23T06:04:02.919Z,23.50
2022-08-23T06:06:37.166Z,24.00
2022-08-23T06:09:15.955Z,23.90
2022-08-23T06:11:45.745Z,23.70
2022-08-23T06:14:15.337Z,23.90
2022-08-23T06:16:45.861Z,24.10
2022-08-23T06:19:15.958Z,24.30
2022-08-23T06:21:44.792Z,24.20
2022-08-23T06:24:13.946Z,24.40
2022-08-23T06:26:45.204Z,25.10
2022-08-23T06:29:16.113Z,25.40
2022-08-23T06:31:48.694Z,25.20
2022-08-23T06:34:21.778Z,25.60
2022-08-23T06:36:52.494Z,25.50
2022-08-23T08:16:03.659Z,23.60
2022-08-23T08:18:32.013Z,23.40
2022-08-23T08:21:00.101Z,23.30
2022-08-23T08:24:28.854Z,23.30
2022-08-23T08:43:34.141Z,23.20
2022-08-23T08:46:08.160Z,23.50
2022-08-23T08:49:02.447Z,23.40
2022-08-23T08:51:57.323Z,23.50
2022-08-23T08:54:29.076Z,23.50
2022-08-23T08:57:01.160Z,23.60
2022-08-23T08:59:49.713Z,23.60
2022-08-23T09:02:32.526Z,23.60
2022-08-23T09:05:20.806Z,23.70
2022-08-23T09:08:13.586Z,23.90
2022-08-23T09:11:00.087Z,24.10
2022-08-23T09:14:02.485Z,24.10
2022-08-23T09:16:53.987Z,24.20
2022-08-23T09:19:29.149Z,24.30
2022-08-23T09:22:00.177Z,24.40
2022-08-23T09:24:31.019Z,24.40
2022-08-23T09:26:59.751Z,24.30
2022-08-23T09:29:29.602Z,24.50
2022-08-23T09:32:02.553Z,24.50
2022-08-23T09:34:43.422Z,24.60
2022-08-23T09:37:19.102Z,24.70
2022-08-23T09:40:17.613Z,24.70
2022-08-23T09:42:47.451Z,24.60
2022-08-23T09:45:35.103Z,24.50
2022-08-23T09:48:04.891Z,24.60
2022-08-23T09:50:38.934Z,24.80
2022-08-23T09:53:10.892Z,25.00
2022-08-23T09:55:43.234Z,25.00
2022-08-23T09:58:19.770Z,24.90
2022-08-23T10:01:02.193Z,25.10
2022-08-23T10:03:31.208Z,25.20
2022-08-23T10:06:02.023Z,25.10
2022-08-23T10:08:33.292Z,25.30
2022-08-23T10:11:12.006Z,25.40
2022-08-23T10:13:43.050Z,25.40
2022-08-23T10:16:18.850Z,25.40
2022-08-23T10:18:59.738Z,25.40
2022-08-23T10:21:37.413Z,25.40
2022-08-23T10:24:28.258Z,25.30
2022-08-23T10:27:29.219Z,25.30
2022-08-23T10:30:05.428Z,25.40
2022-08-23T10:32:47.296Z,25.40
2022-08-23T10:35:31.073Z,25.40
2022-08-23T10:38:13.005Z,25.30
2022-08-23T10:40:47.297Z,25.10
2022-08-23T10:43:27.217Z,25.10
2022-08-23T10:46:00.432Z,25.40
2022-08-23T10:48:33.134Z,25.50
2022-08-23T10:51:03.862Z,25.70
2022-08-23T10:53:37.769Z,25.70
2022-08-23T10:56:08.130Z,25.80
2022-08-23T10:58:47.464Z,25.80
2022-08-23T11:01:18.837Z,25.90
2022-08-23T11:03:53.304Z,26.10
2022-08-23T11:06:52.402Z,26.10
2022-08-23T11:09:46.903Z,26.20
2022-08-23T11:12:31.963Z,26.20
2022-08-23T11:15:22.902Z,26.10
2022-08-23T11:18:01.595Z,26.20
2022-08-23T11:20:56.279Z,26.10
2022-08-23T11:23:40.699Z,26.30
2022-08-23T11:26:12.402Z,26.30
2022-08-23T11:28:44.892Z,26.30
2022-08-23T11:31:24.893Z,26.20
2022-08-23T11:34:00.251Z,26.30
2022-08-23T11:36:30.225Z,26.50
2022-08-23T11:39:13.431Z,26.40
2022-08-23T11:42:07.079Z,26.40
2022-08-23T11:44:40.458Z,26.40
2022-08-23T11:47:12.343Z,26.40
2022-08-23T11:50:21.316Z,26.50
2022-08-23T11:53:12.979Z,26.40
2022-08-23T11:56:12.389Z,26.40
2022-08-23T11:59:09.081Z,26.30
2022-08-23T12:01:40.270Z,26.30
2022-08-23T12:04:14.691Z,26.30
2022-08-23T12:06:50.864Z,26.50
2022-08-23T12:09:51.096Z,26.30
2022-08-23T12:12:29.275Z,26.40
2022-08-23T12:14:59.114Z,26.60
2022-08-23T12:18:14.277Z,26.50
2022-08-23T12:20:48.682Z,26.40
2022-08-23T12:23:22.624Z,26.30
2022-08-23T12:26:08.763Z,26.20
2022-08-23T12:28:44.148Z,26.20
2022-08-23T12:31:22.460Z,26.30
2022-08-23T12:34:15.721Z,26.50
2022-08-23T12:36:55.532Z,26.40
2022-08-23T12:39:29.491Z,26.50
2022-08-23T12:42:00.049Z,26.60
2022-08-23T12:44:30.362Z,26.70
2022-08-23T12:47:13.079Z,26.60
2022-08-23T12:49:41.495Z,26.70
2022-08-23T12:52:13.715Z,26.60
2022-08-23T12:54:44.252Z,26.50
2022-08-23T12:57:18.819Z,26.60
2022-08-23T12:59:52.622Z,26.60
2022-08-23T13:02:26.982Z,26.70
2022-08-23T13:05:00.387Z,26.60
2022-08-23T13:07:31.062Z,26.60
2022-08-23T13:09:59.491Z,26.60
2022-08-23T13:12:28.870Z,26.70
2022-08-23T13:15:01.411Z,26.80
2022-08-23T13:17:36.804Z,26.70
2022-08-23T13:20:25.931Z,26.60
2022-08-23T13:23:04.275Z,26.70
2022-08-23T13:25:35.974Z,26.70
2022-08-23T13:28:06.735Z,26.80
2022-08-23T13:30:37.019Z,26.90
2022-08-23T13:33:24.195Z,26.90
2022-08-23T13:36:06.483Z,26.90
2022-08-23T13:38:44.117Z,26.90
2022-08-23T13:41:27.674Z,26.80
2022-08-23T13:43:56.035Z,26.70
2022-08-23T13:46:26.600Z,26.70
2022-08-23T13:48:59.475Z,26.80
2022-08-23T13:51:32.327Z,26.90
2022-08-23T13:54:03.975Z,26.90
2022-08-23T13:56:36.678Z,26.90
2022-08-23T13:59:18.127Z,26.80
2022-08-23T14:01:46.570Z,26.70
2022-08-23T14:04:14.647Z,26.80
2022-08-23T14:06:42.744Z,26.80
2022-08-23T14:09:18.643Z,26.80
2022-08-23T14:12:03.861Z,26.80
2022-08-23T14:14:33.995Z,26.90
2022-08-23T14:17:02.947Z,26.90
2022-08-23T14:22:20.334Z,26.90
2022-08-23T14:24:52.246Z,26.90
2022-08-23T14:27:20.384Z,26.90
2022-08-23T14:29:48.521Z,27.00
2022-08-23T14:32:16.542Z,27.00
2022-08-23T14:34:44.720Z,27.00
2022-08-23T14:40:02.650Z,26.90
2022-08-23T14:42:31.769Z,26.80
2022-08-23T14:45:00.018Z,26.80
2022-08-23T14:47:28.098Z,26.80
2022-08-23T14:49:56.294Z,26.80
2022-08-23T14:52:24.517Z,26.80
2022-08-23T14:54:52.580Z,26.90
2022-08-23T14:57:22.081Z,26.80
2022-08-23T14:59:50.220Z,26.80
2022-08-23T15:02:23.181Z,26.80
2022-08-23T15:04:51.313Z,26.90
2022-08-23T15:07:19.777Z,26.80
2022-08-23T15:09:48.731Z,26.80
2022-08-23T15:15:12.141Z,26.90
2022-08-23T15:17:46.617Z,27.00
2022-08-23T15:20:15.362Z,27.10
2022-08-23T15:22:44.640Z,27.10
2022-08-23T15:25:13.697Z,27.00
2022-08-23T15:27:42.329Z,27.00
2022-08-23T15:30:18.223Z,26.90
2022-08-23T15:32:52.792Z,26.90
2022-08-23T15:35:28.750Z,26.90
2022-08-23T15:37:59.945Z,27.00
2022-08-23T15:40:28.234Z,26.90
2022-08-23T15:43:18.280Z,26.90
2022-08-23T15:45:48.558Z,27.00
2022-08-23T15:48:22.838Z,27.00
2022-08-23T15:50:51.633Z,26.90
2022-08-23T15:53:43.127Z,26.80
2022-08-23T15:56:37.699Z,26.80
2022-08-23T15:59:07.565Z,26.80
2022-08-23T16:01:41.204Z,26.90
2022-08-23T16:04:12.787Z,26.90
2022-08-23T16:06:55.406Z,26.90
2022-08-23T16:09:25.344Z,26.80
2022-08-23T16:11:57.145Z,26.80
2022-08-23T16:14:27.855Z,26.80
2022-08-23T16:16:57.973Z,26.80
2022-08-23T16:19:31.425Z,26.70
2022-08-23T16:22:02.926Z,26.70
2022-08-23T16:24:53.147Z,26.60
2022-08-23T16:30:23.998Z,26.50
2022-08-23T16:32:53.547Z,26.40
2022-08-23T16:35:27.567Z,26.40
2022-08-23T16:37:55.723Z,26.30
2022-08-23T16:40:24.164Z,26.20
2022-08-23T16:42:52.856Z,26.30
2022-08-23T16:45:25.796Z,26.30
2022-08-23T16:47:56.107Z,26.20
2022-08-23T16:50:24.136Z,26.20
2022-08-23T16:52:52.472Z,26.20
2022-08-23T16:55:20.972Z,26.10
2022-08-23T16:57:49.094Z,26.00
2022-08-23T17:00:18.399Z,26.00
2022-08-23T17:02:47.129Z,25.90
2022-08-23T17:05:19.476Z,25.70
2022-08-23T17:07:48.023Z,25.50
2022-08-23T17:10:21.582Z,25.40
2022-08-23T17:12:53.421Z,25.20
2022-08-23T17:15:27.013Z,25.10
2022-08-23T17:17:55.237Z,25.00
2022-08-23T17:20:27.438Z,24.90
2022-08-23T17:22:55.879Z,24.80
2022-08-23T17:25:25.283Z,24.80
2022-08-23T17:27:54.717Z,24.70
2022-08-23T17:30:24.808Z,24.50
2022-08-23T17:32:53.486Z,24.30
2022-08-23T17:35:27.086Z,24.10
2022-08-23T17:37:56.176Z,23.90
2022-08-23T17:40:29.777Z,23.70
2022-08-23T17:43:00.218Z,23.50
2022-08-23T17:45:28.674Z,23.30
2022-08-23T17:47:56.991Z,23.20
2022-08-23T17:50:26.608Z,23.00
2022-08-23T17:52:55.082Z,22.90
2022-08-23T17:55:23.197Z,22.70
2022-08-23T17:57:55.057Z,22.60
2022-08-23T18:00:26.289Z,22.40
2022-08-23T18:02:54.541Z,22.30
2022-08-23T18:05:22.686Z,22.10
2022-08-23T18:07:52.320Z,22.00
2022-08-23T18:10:20.677Z,21.80
2022-08-23T18:12:48.892Z,21.70
2022-08-23T18:15:17.518Z,21.60
2022-08-23T18:17:46.423Z,21.50
2022-08-23T18:20:14.969Z,21.40
2022-08-23T18:22:43.179Z,21.30
2022-08-23T18:25:17.002Z,21.20
2022-08-23T18:28:04.694Z,21.00
2022-08-23T18:30:33.102Z,21.00
2022-08-23T18:33:03.241Z,21.00
2022-08-23T18:35:33.868Z,20.90
2022-08-23T18:38:02.444Z,20.90
2022-08-23T18:40:45.148Z,20.80
2022-08-23T18:43:37.521Z,20.80
2022-08-23T18:46:06.713Z,20.70
2022-08-23T18:49:01.455Z,20.70
2022-08-23T18:51:50.373Z,20.70
2022-08-23T18:54:23.380Z,20.60
2022-08-23T18:56:54.721Z,20.60
2022-08-23T18:59:28.087Z,20.60
2022-08-23T19:01:59.603Z,20.60
2022-08-23T19:04:27.862Z,20.50
2022-08-23T19:06:58.133Z,20.50
2022-08-23T19:09:29.167Z,20.40
2022-08-23T19:12:00.270Z,20.40
2022-08-23T19:14:28.558Z,20.40
2022-08-23T19:16:59.294Z,20.40
2022-08-23T19:19:29.220Z,20.30
2022-08-23T19:21:58.389Z,20.30
2022-08-23T19:24:30.087Z,20.30
2022-08-23T19:26:59.779Z,20.60
2022-08-23T19:29:27.929Z,21.00
2022-08-23T19:31:56.030Z,21.10
2022-08-23T19:34:24.047Z,21.40
2022-08-23T19:37:00.791Z,21.50
2022-08-23T19:39:30.335Z,21.70
2022-08-23T19:41:59.951Z,22.00
2022-08-23T19:44:28.381Z,22.00
2022-08-23T19:46:56.653Z,22.00
2022-08-23T19:49:25.103Z,22.00
2022-08-23T19:51:56.612Z,22.10
2022-08-23T19:54:26.009Z,22.10
2022-08-23T19:56:57.626Z,22.20
2022-08-23T19:59:30.372Z,22.20
2022-08-23T20:02:00.266Z,22.30
2022-08-23T20:04:30.804Z,22.20
2022-08-23T20:07:00.774Z,22.20
2022-08-23T20:09:30.169Z,22.10
2022-08-23T20:11:58.824Z,22.00
2022-08-23T20:14:31.276Z,21.90
2022-08-23T20:16:59.456Z,21.80
2022-08-23T20:19:28.351Z,21.80
2022-08-23T20:22:17.154Z,21.90
2022-08-23T20:24:52.672Z,22.00
2022-08-23T20:33:48.327Z,21.80
2022-08-23T20:36:17.782Z,21.70
2022-08-23T20:38:46.116Z,21.60
2022-08-23T20:41:16.830Z,21.40
2022-08-23T20:43:48.716Z,21.30
2022-08-23T20:53:56.627Z,21.00
2022-08-23T20:56:46.206Z,21.00
2022-08-23T20:59:19.045Z,21.10
2022-08-23T21:01:49.215Z,21.10
2022-08-23T21:11:32.902Z,21.20
2022-08-23T21:14:28.800Z,21.10
2022-08-23T21:16:58.434Z,21.10
2022-08-23T21:19:26.505Z,21.10
2022-08-23T21:22:53.234Z,21.10
2022-08-23T21:26:05.667Z,21.00
2022-08-23T21:28:47.680Z,21.10
2022-08-23T21:31:35.421Z,21.10
2022-08-23T21:34:11.075Z,21.00
2022-08-23T21:36:59.339Z,20.90
2022-08-23T21:39:27.695Z,20.70
2022-08-23T21:42:14.798Z,20.60
2022-08-23T21:45:23.233Z,20.60
2022-08-23T21:47:51.747Z,20.60
2022-08-23T21:50:21.432Z,20.60
2022-08-23T21:53:03.996Z,20.60
2022-08-23T21:55:36.975Z,20.50
2022-08-23T21:58:05.330Z,20.50
2022-08-23T22:00:34.375Z,20.50
2022-08-23T22:03:06.051Z,20.50
2022-08-23T22:05:45.874Z,20.30
2022-08-23T22:08:14.690Z,20.20
2022-08-23T22:10:53.733Z,20.10
2022-08-23T22:13:26.950Z,20.10
2022-08-23T22:15:55.259Z,19.90
2022-08-23T22:18:23.366Z,19.70
2022-08-23T22:20:52.988Z,19.70
2022-08-23T22:23:21.060Z,19.70
2022-08-23T22:25:49.134Z,19.70
2022-08-23T22:28:20.175Z,19.80
2022-08-23T22:30:54.323Z,19.80
2022-08-23T22:33:26.192Z,19.80
2022-08-23T22:36:02.292Z,19.70
2022-08-23T22:38:33.490Z,19.60
2022-08-23T22:41:03.966Z,19.70
2022-08-23T22:43:32.480Z,19.80
2022-08-23T22:46:03.792Z,19.70
2022-08-23T22:48:34.263Z,19.50
2022-08-23T22:51:17.278Z,19.30
2022-08-23T22:53:49.331Z,19.30
2022-08-23T22:56:20.627Z,19.30
2022-08-23T22:58:49.818Z,19.20
2022-08-23T23:01:22.670Z,19.10
2022-08-23T23:03:51.536Z,19.00
2022-08-23T23:06:27.057Z,19.10
2022-08-23T23:08:56.514Z,19.10
2022-08-23T23:11:25.559Z,19.10
2022-08-23T23:13:54.004Z,18.90
2022-08-23T23:16:24.276Z,18.80
2022-08-23T23:19:06.466Z,18.80
2022-08-23T23:21:38.303Z,18.80
2022-08-23T23:24:06.790Z,18.80
2022-08-23T23:26:35.051Z,18.80
2022-08-23T23:29:04.480Z,18.70
2022-08-23T23:31:32.650Z,18.70
2022-08-23T23:34:00.662Z,18.70
2022-08-23T23:36:29.101Z,18.70
2022-08-23T23:38:58.929Z,18.70
2022-08-23T23:41:27.421Z,18.60
2022-08-23T23:43:55.546Z,18.70
2022-08-23T23:46:25.578Z,18.80
2022-08-23T23:48:54.004Z,18.90
2022-08-23T23:51:25.149Z,18.90
2022-08-23T23:53:54.589Z,18.90
2022-08-23T23:56:27.413Z,19.00
2022-08-23T23:58:56.669Z,18.90
